sensor_id;sensor_type;location;lat;lon;timestamp;temperature;humidity
2024;DHT22;1016;48.770;9.154;2023-07-30T00:00:40;21.80;99.90
2024;DHT22;1016;48.770;9.154;2023-07-30T00:03:06;21.80;99.90
2024;DHT22;1016;48.770;9.154;2023-07-30T00:05:31;21.80;99.90
2024;DHT22;1016;48.770;9.154;2023-07-30T00:07:57;21.80;99.90
2024;DHT22;1016;48.770;9.154;2023-07-30T00:10:22;21.70;99.90
2024;DHT22;1016;48.770;9.154;2023-07-30T00:12:48;21.70;99.90
2024;DHT22;1016;48.770;9.154;2023-07-30T00:15:13;21.70;99.90
2024;DHT22;1016;48.770;9.154;2023-07-30T00:17:39;21.70;99.90
2024;DHT22;1016;48.770;9.154;2023-07-30T00:20:06;21.60;99.90
2024;DHT22;1016;48.770;9.154;2023-07-30T00:22:32;21.50;99.90
2024;DHT22;1016;48.770;9.154;2023-07-30T00:24:57;21.50;99.90
2024;DHT22;1016;48.770;9.154;2023-07-30T00:27:23;21.50;99.90
2024;DHT22;1016;48.770;9.154;2023-07-30T00:29:48;21.40;99.90
2024;DHT22;1016;48.770;9.154;2023-07-30T00:32:14;21.40;99.90
2024;DHT22;1016;48.770;9.154;2023-07-30T00:34:41;21.40;99.90
2024;DHT22;1016;48.770;9.154;2023-07-30T00:37:07;21.50;99.90
2024;DHT22;1016;48.770;9.154;2023-07-30T00:39:32;21.50;99.90
2024;DHT22;1016;48.770;9.154;2023-07-30T00:41:58;21.50;99.90
2024;DHT22;1016;48.770;9.154;2023-07-30T00:44:23;21.40;99.90
2024;DHT22;1016;48.770;9.154;2023-07-30T00:46:49;21.40;99.90
2024;DHT22;1016;48.770;9.154;2023-07-30T00:49:15;21.40;99.90
2024;DHT22;1016;48.770;9.154;2023-07-30T00:51:41;21.40;99.90
2024;DHT22;1016;48.770;9.154;2023-07-30T00:54:07;21.50;99.90
2024;DHT22;1016;48.770;9.154;2023-07-30T00:56:33;21.50;99.90
2024;DHT22;1016;48.770;9.154;2023-07-30T00:58:58;21.50;99.90
2024;DHT22;1016;48.770;9.154;2023-07-30T01:01:24;21.60;99.90
2024;DHT22;1016;48.770;9.154;2023-07-30T01:03:50;21.60;99.90
2024;DHT22;1016;48.770;9.154;2023-07-30T01:06:15;21.60;99.90
2024;DHT22;1016;48.770;9.154;2023-07-30T01:08:41;21.60;99.90
2024;DHT22;1016;48.770;9.154;2023-07-30T01:11:07;21.60;99.90
2024;DHT22;1016;48.770;9.154;2023-07-30T01:13:33;21.60;99.90
2024;DHT22;1016;48.770;9.154;2023-07-30T01:16:00;21.60;99.90
2024;DHT22;1016;48.770;9.154;2023-07-30T01:18:25;21.60;99.90
2024;DHT22;1016;48.770;9.154;2023-07-30T01:20:57;21.70;99.90
2024;DHT22;1016;48.770;9.154;2023-07-30T01:23:24;21.70;99.90
2024;DHT22;1016;48.770;9.154;2023-07-30T01:25:55;21.70;99.90
2024;DHT22;1016;48.770;9.154;2023-07-30T01:28:24;21.70;99.90
2024;DHT22;1016;48.770;9.154;2023-07-30T01:30:51;21.70;99.90
2024;DHT22;1016;48.770;9.154;2023-07-30T01:33:16;21.70;99.90
2024;DHT22;1016;48.770;9.154;2023-07-30T01:35:43;21.80;99.90
2024;DHT22;1016;48.770;9.154;2023-07-30T01:38:09;21.80;99.90
2024;DHT22;1016;48.770;9.154;2023-07-30T01:40:35;21.80;99.90
2024;DHT22;1016;48.770;9.154;2023-07-30T01:43:01;21.80;99.90
2024;DHT22;1016;48.770;9.154;2023-07-30T01:45:27;21.80;99.90
2024;DHT22;1016;48.770;9.154;2023-07-30T01:47:52;21.80;99.90
2024;DHT22;1016;48.770;9.154;2023-07-30T01:50:18;21.80;99.90
2024;DHT22;1016;48.770;9.154;2023-07-30T01:52:43;21.70;99.90
2024;DHT22;1016;48.770;9.154;2023-07-30T01:55:09;21.70;99.90
2024;DHT22;1016;48.770;9.154;2023-07-30T01:57:34;21.70;99.90
2024;DHT22;1016;48.770;9.154;2023-07-30T02:00:00;21.70;99.90
2024;DHT22;1016;48.770;9.154;2023-07-30T02:02:25;21.70;99.90
2024;DHT22;1016;48.770;9.154;2023-07-30T02:04:51;21.70;99.90
2024;DHT22;1016;48.770;9.154;2023-07-30T02:07:17;21.70;99.90
2024;DHT22;1016;48.770;9.154;2023-07-30T02:09:43;21.70;99.90
2024;DHT22;1016;48.770;9.154;2023-07-30T02:12:09;21.70;99.90
2024;DHT22;1016;48.770;9.154;2023-07-30T02:14:35;21.70;99.90
2024;DHT22;1016;48.770;9.154;2023-07-30T02:17:00;21.70;99.90
2024;DHT22;1016;48.770;9.154;2023-07-30T02:19:26;21.70;99.90
2024;DHT22;1016;48.770;9.154;2023-07-30T02:21:51;21.70;99.90
2024;DHT22;1016;48.770;9.154;2023-07-30T02:24:16;21.70;99.90
2024;DHT22;1016;48.770;9.154;2023-07-30T02:26:42;21.70;99.90
2024;DHT22;1016;48.770;9.154;2023-07-30T02:29:07;21.70;99.90
2024;DHT22;1016;48.770;9.154;2023-07-30T02:31:33;21.70;99.90
2024;DHT22;1016;48.770;9.154;2023-07-30T02:33:58;21.70;99.90
2024;DHT22;1016;48.770;9.154;2023-07-30T02:36:24;21.70;99.90
2024;DHT22;1016;48.770;9.154;2023-07-30T02:38:50;21.70;99.90
2024;DHT22;1016;48.770;9.154;2023-07-30T02:41:16;21.70;99.90
2024;DHT22;1016;48.770;9.154;2023-07-30T02:43:42;21.60;99.90
2024;DHT22;1016;48.770;9.154;2023-07-30T02:46:08;21.60;99.90
2024;DHT22;1016;48.770;9.154;2023-07-30T02:48:33;21.50;99.90
2024;DHT22;1016;48.770;9.154;2023-07-30T02:50:59;21.50;99.90
2024;DHT22;1016;48.770;9.154;2023-07-30T02:53:24;21.50;99.90
2024;DHT22;1016;48.770;9.154;2023-07-30T02:55:50;21.40;99.90
2024;DHT22;1016;48.770;9.154;2023-07-30T02:58:15;21.40;99.90
2024;DHT22;1016;48.770;9.154;2023-07-30T03:00:41;21.40;99.90
2024;DHT22;1016;48.770;9.154;2023-07-30T03:03:06;21.40;99.90
2024;DHT22;1016;48.770;9.154;2023-07-30T03:05:32;21.50;99.90
2024;DHT22;1016;48.770;9.154;2023-07-30T03:07:57;21.40;99.90
2024;DHT22;1016;48.770;9.154;2023-07-30T03:10:23;21.40;99.90
2024;DHT22;1016;48.770;9.154;2023-07-30T03:12:48;21.50;99.90
2024;DHT22;1016;48.770;9.154;2023-07-30T03:15:14;21.50;99.90
2024;DHT22;1016;48.770;9.154;2023-07-30T03:17:39;21.50;99.90
2024;DHT22;1016;48.770;9.154;2023-07-30T03:20:05;21.50;99.90
2024;DHT22;1016;48.770;9.154;2023-07-30T03:22:31;21.50;99.90
2024;DHT22;1016;48.770;9.154;2023-07-30T03:24:56;21.50;99.90
2024;DHT22;1016;48.770;9.154;2023-07-30T03:27:22;21.50;99.90
2024;DHT22;1016;48.770;9.154;2023-07-30T03:29:47;21.50;99.90
2024;DHT22;1016;48.770;9.154;2023-07-30T03:32:13;21.50;99.90
2024;DHT22;1016;48.770;9.154;2023-07-30T03:34:38;21.50;99.90
2024;DHT22;1016;48.770;9.154;2023-07-30T03:37:04;21.50;99.90
2024;DHT22;1016;48.770;9.154;2023-07-30T03:39:30;21.50;99.90
2024;DHT22;1016;48.770;9.154;2023-07-30T03:41:55;21.50;99.90
2024;DHT22;1016;48.770;9.154;2023-07-30T03:44:21;21.60;99.90
2024;DHT22;1016;48.770;9.154;2023-07-30T03:46:46;21.50;99.90
2024;DHT22;1016;48.770;9.154;2023-07-30T03:49:12;21.50;99.90
2024;DHT22;1016;48.770;9.154;2023-07-30T03:51:37;21.50;99.90
2024;DHT22;1016;48.770;9.154;2023-07-30T03:54:04;21.50;99.90
2024;DHT22;1016;48.770;9.154;2023-07-30T03:56:30;21.50;99.90
2024;DHT22;1016;48.770;9.154;2023-07-30T03:58:56;21.50;99.90
2024;DHT22;1016;48.770;9.154;2023-07-30T04:01:21;21.50;99.90
2024;DHT22;1016;48.770;9.154;2023-07-30T04:03:47;21.50;99.90
2024;DHT22;1016;48.770;9.154;2023-07-30T04:06:12;21.50;99.90
2024;DHT22;1016;48.770;9.154;2023-07-30T04:08:38;21.50;99.90
2024;DHT22;1016;48.770;9.154;2023-07-30T04:11:04;21.50;99.90
2024;DHT22;1016;48.770;9.154;2023-07-30T04:13:29;21.50;99.90
2024;DHT22;1016;48.770;9.154;2023-07-30T04:15:55;21.50;99.90
2024;DHT22;1016;48.770;9.154;2023-07-30T04:18:20;21.50;99.90
2024;DHT22;1016;48.770;9.154;2023-07-30T04:20:48;21.50;99.90
2024;DHT22;1016;48.770;9.154;2023-07-30T04:23:13;21.50;99.90
2024;DHT22;1016;48.770;9.154;2023-07-30T04:25:39;21.50;99.90
2024;DHT22;1016;48.770;9.154;2023-07-30T04:28:04;21.50;99.90
2024;DHT22;1016;48.770;9.154;2023-07-30T04:30:29;21.50;99.90
2024;DHT22;1016;48.770;9.154;2023-07-30T04:32:55;21.50;99.90
2024;DHT22;1016;48.770;9.154;2023-07-30T04:35:20;21.50;99.90
2024;DHT22;1016;48.770;9.154;2023-07-30T04:37:46;21.50;99.90
2024;DHT22;1016;48.770;9.154;2023-07-30T04:40:11;21.40;99.90
2024;DHT22;1016;48.770;9.154;2023-07-30T04:42:37;21.50;99.90
2024;DHT22;1016;48.770;9.154;2023-07-30T04:45:03;21.40;99.90
2024;DHT22;1016;48.770;9.154;2023-07-30T04:47:28;21.40;99.90
2024;DHT22;1016;48.770;9.154;2023-07-30T04:49:54;21.40;99.90
2024;DHT22;1016;48.770;9.154;2023-07-30T04:52:19;21.40;99.90
2024;DHT22;1016;48.770;9.154;2023-07-30T04:54:45;21.50;99.90
2024;DHT22;1016;48.770;9.154;2023-07-30T04:57:11;21.50;99.90
2024;DHT22;1016;48.770;9.154;2023-07-30T04:59:36;21.50;99.90
2024;DHT22;1016;48.770;9.154;2023-07-30T05:02:02;21.50;99.90
2024;DHT22;1016;48.770;9.154;2023-07-30T05:04:27;21.50;99.90
2024;DHT22;1016;48.770;9.154;2023-07-30T05:06:53;21.50;99.90
2024;DHT22;1016;48.770;9.154;2023-07-30T05:09:19;21.50;99.90
2024;DHT22;1016;48.770;9.154;2023-07-30T05:11:44;21.50;99.90
2024;DHT22;1016;48.770;9.154;2023-07-30T05:14:10;21.50;99.90
2024;DHT22;1016;48.770;9.154;2023-07-30T05:16:35;21.50;99.90
2024;DHT22;1016;48.770;9.154;2023-07-30T05:19:01;21.50;99.90
2024;DHT22;1016;48.770;9.154;2023-07-30T05:21:27;21.50;99.90
2024;DHT22;1016;48.770;9.154;2023-07-30T05:23:52;21.50;99.90
2024;DHT22;1016;48.770;9.154;2023-07-30T05:26:18;21.50;99.90
2024;DHT22;1016;48.770;9.154;2023-07-30T05:28:44;21.50;99.90
2024;DHT22;1016;48.770;9.154;2023-07-30T05:31:09;21.50;99.90
2024;DHT22;1016;48.770;9.154;2023-07-30T05:33:35;21.50;99.90
2024;DHT22;1016;48.770;9.154;2023-07-30T05:36:00;21.50;99.90
2024;DHT22;1016;48.770;9.154;2023-07-30T05:38:26;21.50;99.90
2024;DHT22;1016;48.770;9.154;2023-07-30T05:40:51;21.50;99.90
2024;DHT22;1016;48.770;9.154;2023-07-30T05:43:17;21.50;99.90
2024;DHT22;1016;48.770;9.154;2023-07-30T05:45:43;21.50;99.90
2024;DHT22;1016;48.770;9.154;2023-07-30T05:48:08;21.50;99.90
2024;DHT22;1016;48.770;9.154;2023-07-30T05:50:34;21.50;99.90
2024;DHT22;1016;48.770;9.154;2023-07-30T05:53:00;21.50;99.90
2024;DHT22;1016;48.770;9.154;2023-07-30T05:55:25;21.50;99.90
2024;DHT22;1016;48.770;9.154;2023-07-30T05:57:50;21.50;99.90
2024;DHT22;1016;48.770;9.154;2023-07-30T06:00:19;21.50;99.90
2024;DHT22;1016;48.770;9.154;2023-07-30T06:02:45;21.60;99.90
2024;DHT22;1016;48.770;9.154;2023-07-30T06:05:10;21.50;99.90
2024;DHT22;1016;48.770;9.154;2023-07-30T06:07:36;21.50;99.90
2024;DHT22;1016;48.770;9.154;2023-07-30T06:10:02;21.60;99.90
2024;DHT22;1016;48.770;9.154;2023-07-30T06:12:27;21.60;99.90
2024;DHT22;1016;48.770;9.154;2023-07-30T06:14:53;21.60;99.90
2024;DHT22;1016;48.770;9.154;2023-07-30T06:17:18;21.60;99.90
2024;DHT22;1016;48.770;9.154;2023-07-30T06:19:44;21.60;99.90
2024;DHT22;1016;48.770;9.154;2023-07-30T06:22:09;21.60;99.90
2024;DHT22;1016;48.770;9.154;2023-07-30T06:24:35;21.60;99.90
2024;DHT22;1016;48.770;9.154;2023-07-30T06:27:00;21.60;99.90
2024;DHT22;1016;48.770;9.154;2023-07-30T06:29:26;21.60;99.90
2024;DHT22;1016;48.770;9.154;2023-07-30T06:31:51;21.60;99.90
2024;DHT22;1016;48.770;9.154;2023-07-30T06:34:17;21.60;99.90
2024;DHT22;1016;48.770;9.154;2023-07-30T06:36:42;21.60;99.90
2024;DHT22;1016;48.770;9.154;2023-07-30T06:39:08;21.70;99.90
2024;DHT22;1016;48.770;9.154;2023-07-30T06:41:33;21.70;99.90
2024;DHT22;1016;48.770;9.154;2023-07-30T06:43:59;21.70;99.90
2024;DHT22;1016;48.770;9.154;2023-07-30T06:46:24;21.70;99.90
2024;DHT22;1016;48.770;9.154;2023-07-30T06:48:50;21.70;99.90
2024;DHT22;1016;48.770;9.154;2023-07-30T06:51:19;21.70;99.90
2024;DHT22;1016;48.770;9.154;2023-07-30T06:53:44;21.70;99.90
2024;DHT22;1016;48.770;9.154;2023-07-30T06:56:10;21.70;99.90
2024;DHT22;1016;48.770;9.154;2023-07-30T06:58:35;21.70;99.90
2024;DHT22;1016;48.770;9.154;2023-07-30T07:01:01;21.70;99.90
2024;DHT22;1016;48.770;9.154;2023-07-30T07:03:26;21.70;99.90
2024;DHT22;1016;48.770;9.154;2023-07-30T07:05:56;21.70;99.90
2024;DHT22;1016;48.770;9.154;2023-07-30T07:08:22;21.70;99.90
2024;DHT22;1016;48.770;9.154;2023-07-30T07:10:48;21.80;99.90
2024;DHT22;1016;48.770;9.154;2023-07-30T07:13:14;21.80;99.90
2024;DHT22;1016;48.770;9.154;2023-07-30T07:15:41;21.80;99.90
2024;DHT22;1016;48.770;9.154;2023-07-30T07:18:07;21.80;99.90
2024;DHT22;1016;48.770;9.154;2023-07-30T07:20:32;21.80;99.90
2024;DHT22;1016;48.770;9.154;2023-07-30T07:22:58;21.80;99.90
2024;DHT22;1016;48.770;9.154;2023-07-30T07:25:23;21.80;99.90
2024;DHT22;1016;48.770;9.154;2023-07-30T07:27:49;21.80;99.90
2024;DHT22;1016;48.770;9.154;2023-07-30T07:30:15;21.90;99.90
2024;DHT22;1016;48.770;9.154;2023-07-30T07:32:40;21.80;99.90
2024;DHT22;1016;48.770;9.154;2023-07-30T07:35:06;21.80;99.90
2024;DHT22;1016;48.770;9.154;2023-07-30T07:37:32;21.80;99.90
2024;DHT22;1016;48.770;9.154;2023-07-30T07:39:58;21.80;99.90
2024;DHT22;1016;48.770;9.154;2023-07-30T07:42:24;21.80;99.90
2024;DHT22;1016;48.770;9.154;2023-07-30T07:44:49;21.90;99.90
2024;DHT22;1016;48.770;9.154;2023-07-30T07:47:15;21.80;99.90
2024;DHT22;1016;48.770;9.154;2023-07-30T07:49:41;21.80;99.90
2024;DHT22;1016;48.770;9.154;2023-07-30T07:52:07;21.90;99.90
2024;DHT22;1016;48.770;9.154;2023-07-30T07:54:32;21.80;99.90
2024;DHT22;1016;48.770;9.154;2023-07-30T07:56:58;21.80;99.90
2024;DHT22;1016;48.770;9.154;2023-07-30T07:59:24;21.80;99.90
2024;DHT22;1016;48.770;9.154;2023-07-30T08:01:49;21.80;99.90
2024;DHT22;1016;48.770;9.154;2023-07-30T08:04:15;21.90;99.90
2024;DHT22;1016;48.770;9.154;2023-07-30T08:06:41;21.90;99.90
2024;DHT22;1016;48.770;9.154;2023-07-30T08:09:06;21.90;99.90
2024;DHT22;1016;48.770;9.154;2023-07-30T08:11:32;21.90;99.90
2024;DHT22;1016;48.770;9.154;2023-07-30T08:13:57;21.90;99.90
2024;DHT22;1016;48.770;9.154;2023-07-30T08:16:23;21.90;99.90
2024;DHT22;1016;48.770;9.154;2023-07-30T08:18:48;21.90;99.90
2024;DHT22;1016;48.770;9.154;2023-07-30T08:21:14;21.90;99.90
2024;DHT22;1016;48.770;9.154;2023-07-30T08:23:42;21.90;99.90
2024;DHT22;1016;48.770;9.154;2023-07-30T08:26:08;21.90;99.90
2024;DHT22;1016;48.770;9.154;2023-07-30T08:28:33;21.90;99.90
2024;DHT22;1016;48.770;9.154;2023-07-30T08:31:00;21.90;99.90
2024;DHT22;1016;48.770;9.154;2023-07-30T08:33:27;21.90;99.90
2024;DHT22;1016;48.770;9.154;2023-07-30T08:35:56;22.00;99.90
2024;DHT22;1016;48.770;9.154;2023-07-30T08:38:22;21.90;99.90
2024;DHT22;1016;48.770;9.154;2023-07-30T08:40:48;21.90;99.90
2024;DHT22;1016;48.770;9.154;2023-07-30T08:43:14;22.00;99.90
2024;DHT22;1016;48.770;9.154;2023-07-30T08:45:39;22.00;99.90
2024;DHT22;1016;48.770;9.154;2023-07-30T08:48:05;22.00;99.90
2024;DHT22;1016;48.770;9.154;2023-07-30T08:50:30;22.00;99.90
2024;DHT22;1016;48.770;9.154;2023-07-30T08:52:57;22.00;99.90
2024;DHT22;1016;48.770;9.154;2023-07-30T08:55:25;22.00;99.90
2024;DHT22;1016;48.770;9.154;2023-07-30T08:57:52;22.00;99.90
2024;DHT22;1016;48.770;9.154;2023-07-30T09:00:19;22.00;99.90
2024;DHT22;1016;48.770;9.154;2023-07-30T09:02:50;22.00;99.90
2024;DHT22;1016;48.770;9.154;2023-07-30T09:05:16;22.10;99.90
2024;DHT22;1016;48.770;9.154;2023-07-30T09:07:42;22.10;99.90
2024;DHT22;1016;48.770;9.154;2023-07-30T09:10:08;22.10;99.90
2024;DHT22;1016;48.770;9.154;2023-07-30T09:12:34;22.10;99.90
2024;DHT22;1016;48.770;9.154;2023-07-30T09:15:02;22.10;99.90
2024;DHT22;1016;48.770;9.154;2023-07-30T09:17:28;22.20;99.90
2024;DHT22;1016;48.770;9.154;2023-07-30T09:19:54;22.20;99.90
2024;DHT22;1016;48.770;9.154;2023-07-30T09:22:30;22.30;99.90
2024;DHT22;1016;48.770;9.154;2023-07-30T09:25:01;22.30;99.90
2024;DHT22;1016;48.770;9.154;2023-07-30T09:27:28;22.30;99.90
2024;DHT22;1016;48.770;9.154;2023-07-30T09:29:55;22.30;99.90
2024;DHT22;1016;48.770;9.154;2023-07-30T09:32:29;22.30;99.90
2024;DHT22;1016;48.770;9.154;2023-07-30T09:34:54;22.30;99.90
2024;DHT22;1016;48.770;9.154;2023-07-30T09:37:20;22.30;99.90
2024;DHT22;1016;48.770;9.154;2023-07-30T09:39:49;22.30;99.90
2024;DHT22;1016;48.770;9.154;2023-07-30T09:42:14;22.30;99.90
2024;DHT22;1016;48.770;9.154;2023-07-30T09:44:40;22.30;99.90
2024;DHT22;1016;48.770;9.154;2023-07-30T09:47:11;22.30;99.90
2024;DHT22;1016;48.770;9.154;2023-07-30T09:49:37;22.30;99.90
2024;DHT22;1016;48.770;9.154;2023-07-30T09:52:04;22.30;99.90
2024;DHT22;1016;48.770;9.154;2023-07-30T09:54:31;22.30;99.90
2024;DHT22;1016;48.770;9.154;2023-07-30T09:56:57;22.30;99.90
2024;DHT22;1016;48.770;9.154;2023-07-30T09:59:23;22.30;99.90
2024;DHT22;1016;48.770;9.154;2023-07-30T10:01:49;22.30;99.90
2024;DHT22;1016;48.770;9.154;2023-07-30T10:04:21;22.30;99.90
2024;DHT22;1016;48.770;9.154;2023-07-30T10:07:03;22.40;99.90
2024;DHT22;1016;48.770;9.154;2023-07-30T10:09:34;22.40;99.90
2024;DHT22;1016;48.770;9.154;2023-07-30T10:12:04;22.40;99.90
2024;DHT22;1016;48.770;9.154;2023-07-30T10:14:31;22.30;99.90
2024;DHT22;1016;48.770;9.154;2023-07-30T10:16:59;22.30;99.90
2024;DHT22;1016;48.770;9.154;2023-07-30T10:19:27;22.30;99.90
2024;DHT22;1016;48.770;9.154;2023-07-30T10:24:40;22.30;99.90
2024;DHT22;1016;48.770;9.154;2023-07-30T10:27:07;22.30;99.90
2024;DHT22;1016;48.770;9.154;2023-07-30T10:29:39;22.20;99.90
2024;DHT22;1016;48.770;9.154;2023-07-30T10:32:07;22.20;99.90
2024;DHT22;1016;48.770;9.154;2023-07-30T10:34:44;22.20;99.90
2024;DHT22;1016;48.770;9.154;2023-07-30T10:37:10;22.30;99.90
2024;DHT22;1016;48.770;9.154;2023-07-30T10:39:36;22.30;99.90
2024;DHT22;1016;48.770;9.154;2023-07-30T10:42:02;22.30;99.90
2024;DHT22;1016;48.770;9.154;2023-07-30T10:44:31;22.50;99.90
2024;DHT22;1016;48.770;9.154;2023-07-30T10:46:58;22.40;99.90
2024;DHT22;1016;48.770;9.154;2023-07-30T10:49:24;22.40;99.90
2024;DHT22;1016;48.770;9.154;2023-07-30T10:51:57;22.40;99.90
2024;DHT22;1016;48.770;9.154;2023-07-30T10:54:23;22.40;99.90
2024;DHT22;1016;48.770;9.154;2023-07-30T10:56:49;22.40;99.90
2024;DHT22;1016;48.770;9.154;2023-07-30T10:59:15;22.50;99.90
2024;DHT22;1016;48.770;9.154;2023-07-30T11:01:42;22.50;99.90
2024;DHT22;1016;48.770;9.154;2023-07-30T11:04:16;22.60;99.90
2024;DHT22;1016;48.770;9.154;2023-07-30T11:06:50;22.60;99.90
2024;DHT22;1016;48.770;9.154;2023-07-30T11:09:26;22.70;99.90
2024;DHT22;1016;48.770;9.154;2023-07-30T11:11:53;22.70;99.90
2024;DHT22;1016;48.770;9.154;2023-07-30T11:14:20;22.70;99.90
2024;DHT22;1016;48.770;9.154;2023-07-30T11:16:50;22.70;99.90
2024;DHT22;1016;48.770;9.154;2023-07-30T11:19:16;22.70;99.90
2024;DHT22;1016;48.770;9.154;2023-07-30T11:21:49;22.70;99.90
2024;DHT22;1016;48.770;9.154;2023-07-30T11:24:15;22.80;99.90
2024;DHT22;1016;48.770;9.154;2023-07-30T11:26:41;22.70;99.90
2024;DHT22;1016;48.770;9.154;2023-07-30T11:29:16;22.70;99.90
2024;DHT22;1016;48.770;9.154;2023-07-30T11:31:46;22.80;99.90
2024;DHT22;1016;48.770;9.154;2023-07-30T11:34:15;22.80;99.90
2024;DHT22;1016;48.770;9.154;2023-07-30T11:36:42;22.80;99.90
2024;DHT22;1016;48.770;9.154;2023-07-30T11:39:08;22.90;99.90
2024;DHT22;1016;48.770;9.154;2023-07-30T11:41:35;22.90;99.90
2024;DHT22;1016;48.770;9.154;2023-07-30T11:44:02;22.90;99.90
2024;DHT22;1016;48.770;9.154;2023-07-30T11:46:27;22.90;99.90
2024;DHT22;1016;48.770;9.154;2023-07-30T11:49:11;22.90;99.90
2024;DHT22;1016;48.770;9.154;2023-07-30T11:51:37;23.00;99.90
2024;DHT22;1016;48.770;9.154;2023-07-30T11:54:03;23.00;99.90
2024;DHT22;1016;48.770;9.154;2023-07-30T11:56:32;23.00;99.90
2024;DHT22;1016;48.770;9.154;2023-07-30T11:59:00;23.00;99.90
2024;DHT22;1016;48.770;9.154;2023-07-30T12:01:31;23.00;99.90
2024;DHT22;1016;48.770;9.154;2023-07-30T12:03:57;22.90;99.90
2024;DHT22;1016;48.770;9.154;2023-07-30T12:06:24;22.90;99.90
2024;DHT22;1016;48.770;9.154;2023-07-30T12:08:50;23.00;99.90
2024;DHT22;1016;48.770;9.154;2023-07-30T12:11:17;22.90;99.90
2024;DHT22;1016;48.770;9.154;2023-07-30T12:13:45;23.00;99.90
2024;DHT22;1016;48.770;9.154;2023-07-30T12:16:12;23.00;99.90
2024;DHT22;1016;48.770;9.154;2023-07-30T12:18:38;23.00;99.90
2024;DHT22;1016;48.770;9.154;2023-07-30T12:21:05;23.10;99.90
2024;DHT22;1016;48.770;9.154;2023-07-30T12:23:33;22.90;99.90
2024;DHT22;1016;48.770;9.154;2023-07-30T12:25:59;23.10;99.90
2024;DHT22;1016;48.770;9.154;2023-07-30T12:28:24;23.20;99.90
2024;DHT22;1016;48.770;9.154;2023-07-30T12:30:50;23.20;99.90
2024;DHT22;1016;48.770;9.154;2023-07-30T12:33:15;23.30;99.90
2024;DHT22;1016;48.770;9.154;2023-07-30T12:35:42;23.30;99.90
2024;DHT22;1016;48.770;9.154;2023-07-30T12:38:07;23.30;99.90
2024;DHT22;1016;48.770;9.154;2023-07-30T12:40:33;23.30;99.90
2024;DHT22;1016;48.770;9.154;2023-07-30T12:43:01;23.40;99.90
2024;DHT22;1016;48.770;9.154;2023-07-30T12:45:27;23.40;99.90
2024;DHT22;1016;48.770;9.154;2023-07-30T12:47:52;23.40;99.90
2024;DHT22;1016;48.770;9.154;2023-07-30T12:50:18;23.40;99.90
2024;DHT22;1016;48.770;9.154;2023-07-30T12:52:43;23.50;99.90
2024;DHT22;1016;48.770;9.154;2023-07-30T12:55:09;23.40;99.90
2024;DHT22;1016;48.770;9.154;2023-07-30T12:57:35;23.50;99.90
2024;DHT22;1016;48.770;9.154;2023-07-30T13:00:01;23.50;99.90
2024;DHT22;1016;48.770;9.154;2023-07-30T13:02:28;23.50;99.90
2024;DHT22;1016;48.770;9.154;2023-07-30T13:04:54;23.50;99.90
2024;DHT22;1016;48.770;9.154;2023-07-30T13:07:19;23.50;99.90
2024;DHT22;1016;48.770;9.154;2023-07-30T13:09:46;23.50;99.90
2024;DHT22;1016;48.770;9.154;2023-07-30T13:12:12;23.40;99.90
2024;DHT22;1016;48.770;9.154;2023-07-30T13:14:38;23.40;99.90
2024;DHT22;1016;48.770;9.154;2023-07-30T13:17:03;23.40;99.90
2024;DHT22;1016;48.770;9.154;2023-07-30T13:19:29;23.40;99.90
2024;DHT22;1016;48.770;9.154;2023-07-30T13:21:56;23.40;99.90
2024;DHT22;1016;48.770;9.154;2023-07-30T13:24:22;23.40;99.90
2024;DHT22;1016;48.770;9.154;2023-07-30T13:26:47;23.40;99.90
2024;DHT22;1016;48.770;9.154;2023-07-30T13:29:13;23.40;99.90
2024;DHT22;1016;48.770;9.154;2023-07-30T13:31:38;23.50;99.90
2024;DHT22;1016;48.770;9.154;2023-07-30T13:34:03;23.40;99.90
2024;DHT22;1016;48.770;9.154;2023-07-30T13:36:29;23.40;99.90
2024;DHT22;1016;48.770;9.154;2023-07-30T13:38:54;23.50;99.90
2024;DHT22;1016;48.770;9.154;2023-07-30T13:41:20;23.50;99.90
2024;DHT22;1016;48.770;9.154;2023-07-30T13:43:45;23.60;99.90
2024;DHT22;1016;48.770;9.154;2023-07-30T13:46:11;23.80;99.90
2024;DHT22;1016;48.770;9.154;2023-07-30T13:48:36;24.00;99.90
2024;DHT22;1016;48.770;9.154;2023-07-30T13:51:02;24.60;99.90
2024;DHT22;1016;48.770;9.154;2023-07-30T13:53:28;25.40;99.90
2024;DHT22;1016;48.770;9.154;2023-07-30T13:55:54;26.10;99.90
2024;DHT22;1016;48.770;9.154;2023-07-30T13:58:19;26.30;99.90
2024;DHT22;1016;48.770;9.154;2023-07-30T14:00:45;26.30;99.90
2024;DHT22;1016;48.770;9.154;2023-07-30T14:03:10;26.30;99.90
2024;DHT22;1016;48.770;9.154;2023-07-30T14:05:37;26.30;99.90
2024;DHT22;1016;48.770;9.154;2023-07-30T14:08:03;26.10;99.90
2024;DHT22;1016;48.770;9.154;2023-07-30T14:10:29;25.80;99.90
2024;DHT22;1016;48.770;9.154;2023-07-30T14:12:54;25.60;99.90
2024;DHT22;1016;48.770;9.154;2023-07-30T14:15:20;25.40;99.90
2024;DHT22;1016;48.770;9.154;2023-07-30T14:17:45;25.10;99.90
2024;DHT22;1016;48.770;9.154;2023-07-30T14:20:11;25.00;99.90
2024;DHT22;1016;48.770;9.154;2023-07-30T14:22:37;24.80;99.90
2024;DHT22;1016;48.770;9.154;2023-07-30T14:25:03;24.70;99.90
2024;DHT22;1016;48.770;9.154;2023-07-30T14:27:28;24.60;99.90
2024;DHT22;1016;48.770;9.154;2023-07-30T14:29:54;24.50;99.90
2024;DHT22;1016;48.770;9.154;2023-07-30T14:32:20;24.40;99.90
2024;DHT22;1016;48.770;9.154;2023-07-30T14:34:46;24.20;99.90
2024;DHT22;1016;48.770;9.154;2023-07-30T14:37:11;24.20;99.90
2024;DHT22;1016;48.770;9.154;2023-07-30T14:39:37;24.00;99.90
2024;DHT22;1016;48.770;9.154;2023-07-30T14:42:02;23.90;99.90
2024;DHT22;1016;48.770;9.154;2023-07-30T14:44:28;23.80;99.90
2024;DHT22;1016;48.770;9.154;2023-07-30T14:46:54;23.80;99.90
2024;DHT22;1016;48.770;9.154;2023-07-30T14:49:19;23.80;99.90
2024;DHT22;1016;48.770;9.154;2023-07-30T14:51:45;23.70;99.90
2024;DHT22;1016;48.770;9.154;2023-07-30T14:54:11;23.60;99.90
2024;DHT22;1016;48.770;9.154;2023-07-30T14:56:38;23.60;99.90
2024;DHT22;1016;48.770;9.154;2023-07-30T14:59:03;23.50;99.90
2024;DHT22;1016;48.770;9.154;2023-07-30T15:01:29;23.50;99.90
2024;DHT22;1016;48.770;9.154;2023-07-30T15:03:55;23.40;99.90
2024;DHT22;1016;48.770;9.154;2023-07-30T15:06:20;23.40;99.90
2024;DHT22;1016;48.770;9.154;2023-07-30T15:08:47;23.40;99.90
2024;DHT22;1016;48.770;9.154;2023-07-30T15:11:12;23.30;99.90
2024;DHT22;1016;48.770;9.154;2023-07-30T15:13:39;23.30;99.90
2024;DHT22;1016;48.770;9.154;2023-07-30T15:16:05;23.40;99.90
2024;DHT22;1016;48.770;9.154;2023-07-30T15:18:30;23.40;99.90
2024;DHT22;1016;48.770;9.154;2023-07-30T15:20:56;23.30;99.90
2024;DHT22;1016;48.770;9.154;2023-07-30T15:23:22;23.20;99.90
2024;DHT22;1016;48.770;9.154;2023-07-30T15:25:48;23.20;99.90
2024;DHT22;1016;48.770;9.154;2023-07-30T15:28:14;23.10;99.90
2024;DHT22;1016;48.770;9.154;2023-07-30T15:30:40;23.10;99.90
2024;DHT22;1016;48.770;9.154;2023-07-30T15:33:08;23.10;99.90
2024;DHT22;1016;48.770;9.154;2023-07-30T15:35:34;23.10;99.90
2024;DHT22;1016;48.770;9.154;2023-07-30T15:37:59;23.10;99.90
2024;DHT22;1016;48.770;9.154;2023-07-30T15:40:25;23.10;99.90
2024;DHT22;1016;48.770;9.154;2023-07-30T15:42:51;23.10;99.90
2024;DHT22;1016;48.770;9.154;2023-07-30T15:45:16;23.00;99.90
2024;DHT22;1016;48.770;9.154;2023-07-30T15:47:43;23.00;99.90
2024;DHT22;1016;48.770;9.154;2023-07-30T15:50:09;23.00;99.90
2024;DHT22;1016;48.770;9.154;2023-07-30T15:52:35;23.00;99.90
2024;DHT22;1016;48.770;9.154;2023-07-30T15:55:00;23.00;99.90
2024;DHT22;1016;48.770;9.154;2023-07-30T15:57:26;23.00;99.90